sensor_id;sensor_type;location;lat;lon;timestamp;P1;durP1;ratioP1;P2;durP2;ratioP2
13891;SDS011;7016;48.172;8.058;2024-02-15T00:00:51;5.88;;;2.30;;
13891;SDS011;7016;48.172;8.058;2024-02-15T00:03:38;10.77;;;2.38;;
13891;SDS011;7016;48.172;8.058;2024-02-15T00:06:24;5.95;;;2.65;;
13891;SDS011;7016;48.172;8.058;2024-02-15T00:09:10;8.25;;;3.17;;
13891;SDS011;7016;48.172;8.058;2024-02-15T00:11:56;8.95;;;3.30;;
13891;SDS011;7016;48.172;8.058;2024-02-15T00:14:44;9.13;;;3.20;;
13891;SDS011;7016;48.172;8.058;2024-02-15T00:17:30;14.15;;;3.95;;
13891;SDS011;7016;48.172;8.058;2024-02-15T00:20:18;7.60;;;3.22;;
13891;SDS011;7016;48.172;8.058;2024-02-15T00:23:05;9.52;;;3.67;;
13891;SDS011;7016;48.172;8.058;2024-02-15T00:25:52;8.90;;;3.08;;
13891;SDS011;7016;48.172;8.058;2024-02-15T00:28:40;9.10;;;3.20;;
13891;SDS011;7016;48.172;8.058;2024-02-15T00:31:28;11.00;;;3.85;;
13891;SDS011;7016;48.172;8.058;2024-02-15T00:34:14;7.55;;;3.08;;
13891;SDS011;7016;48.172;8.058;2024-02-15T00:37:01;7.70;;;3.47;;
13891;SDS011;7016;48.172;8.058;2024-02-15T00:39:48;11.35;;;3.65;;
13891;SDS011;7016;48.172;8.058;2024-02-15T00:42:34;11.27;;;3.33;;
13891;SDS011;7016;48.172;8.058;2024-02-15T00:45:20;10.30;;;3.85;;
13891;SDS011;7016;48.172;8.058;2024-02-15T00:48:06;6.30;;;2.30;;
13891;SDS011;7016;48.172;8.058;2024-02-15T00:50:53;6.68;;;2.47;;
13891;SDS011;7016;48.172;8.058;2024-02-15T00:53:40;6.13;;;1.90;;
13891;SDS011;7016;48.172;8.058;2024-02-15T00:56:26;6.25;;;2.30;;
13891;SDS011;7016;48.172;8.058;2024-02-15T00:59:13;8.55;;;2.80;;
13891;SDS011;7016;48.172;8.058;2024-02-15T01:01:59;9.50;;;2.80;;
13891;SDS011;7016;48.172;8.058;2024-02-15T01:04:47;7.93;;;2.85;;
13891;SDS011;7016;48.172;8.058;2024-02-15T01:07:33;4.78;;;2.00;;
13891;SDS011;7016;48.172;8.058;2024-02-15T01:10:19;8.07;;;2.50;;
13891;SDS011;7016;48.172;8.058;2024-02-15T01:13:06;6.25;;;2.22;;
13891;SDS011;7016;48.172;8.058;2024-02-15T01:15:52;6.47;;;2.00;;
13891;SDS011;7016;48.172;8.058;2024-02-15T01:18:38;6.10;;;2.25;;
13891;SDS011;7016;48.172;8.058;2024-02-15T01:21:24;5.75;;;2.17;;
13891;SDS011;7016;48.172;8.058;2024-02-15T01:24:10;5.45;;;1.80;;
13891;SDS011;7016;48.172;8.058;2024-02-15T01:26:56;6.68;;;1.90;;
13891;SDS011;7016;48.172;8.058;2024-02-15T01:29:43;7.13;;;1.88;;
13891;SDS011;7016;48.172;8.058;2024-02-15T01:32:29;11.55;;;3.13;;
13891;SDS011;7016;48.172;8.058;2024-02-15T01:35:16;6.82;;;2.20;;
13891;SDS011;7016;48.172;8.058;2024-02-15T01:38:02;10.27;;;3.15;;
13891;SDS011;7016;48.172;8.058;2024-02-15T01:40:49;5.63;;;2.33;;
13891;SDS011;7016;48.172;8.058;2024-02-15T01:43:35;3.95;;;1.88;;
13891;SDS011;7016;48.172;8.058;2024-02-15T01:46:22;9.00;;;2.28;;
13891;SDS011;7016;48.172;8.058;2024-02-15T01:49:08;6.55;;;1.80;;
13891;SDS011;7016;48.172;8.058;2024-02-15T01:51:54;5.88;;;1.90;;
13891;SDS011;7016;48.172;8.058;2024-02-15T01:54:56;8.10;;;1.75;;
13891;SDS011;7016;48.172;8.058;2024-02-15T01:57:43;6.72;;;2.20;;
13891;SDS011;7016;48.172;8.058;2024-02-15T02:00:33;5.78;;;1.70;;
13891;SDS011;7016;48.172;8.058;2024-02-15T02:03:21;6.05;;;1.92;;
13891;SDS011;7016;48.172;8.058;2024-02-15T02:06:09;4.97;;;1.95;;
13891;SDS011;7016;48.172;8.058;2024-02-15T02:08:55;8.63;;;2.65;;
13891;SDS011;7016;48.172;8.058;2024-02-15T02:11:42;4.65;;;1.70;;
13891;SDS011;7016;48.172;8.058;2024-02-15T02:14:34;5.82;;;1.90;;
13891;SDS011;7016;48.172;8.058;2024-02-15T02:17:28;7.18;;;2.00;;
13891;SDS011;7016;48.172;8.058;2024-02-15T02:20:18;5.38;;;1.52;;
13891;SDS011;7016;48.172;8.058;2024-02-15T02:23:14;5.13;;;1.70;;
13891;SDS011;7016;48.172;8.058;2024-02-15T02:26:04;6.88;;;2.08;;
13891;SDS011;7016;48.172;8.058;2024-02-15T02:28:51;8.27;;;2.25;;
13891;SDS011;7016;48.172;8.058;2024-02-15T02:31:40;8.15;;;2.25;;
13891;SDS011;7016;48.172;8.058;2024-02-15T02:34:28;7.28;;;1.90;;
13891;SDS011;7016;48.172;8.058;2024-02-15T02:37:14;8.32;;;2.30;;
13891;SDS011;7016;48.172;8.058;2024-02-15T02:40:00;4.85;;;1.80;;
13891;SDS011;7016;48.172;8.058;2024-02-15T02:42:50;8.70;;;2.13;;
13891;SDS011;7016;48.172;8.058;2024-02-15T02:45:38;7.05;;;2.03;;
13891;SDS011;7016;48.172;8.058;2024-02-15T02:48:24;7.55;;;2.15;;
13891;SDS011;7016;48.172;8.058;2024-02-15T02:51:11;14.50;;;3.53;;
13891;SDS011;7016;48.172;8.058;2024-02-15T02:53:57;9.05;;;2.40;;
13891;SDS011;7016;48.172;8.058;2024-02-15T02:56:44;9.43;;;1.90;;
13891;SDS011;7016;48.172;8.058;2024-02-15T02:59:30;6.20;;;2.13;;
13891;SDS011;7016;48.172;8.058;2024-02-15T03:02:17;5.32;;;2.28;;
13891;SDS011;7016;48.172;8.058;2024-02-15T03:05:03;15.68;;;3.25;;
13891;SDS011;7016;48.172;8.058;2024-02-15T03:07:50;7.15;;;2.53;;
13891;SDS011;7016;48.172;8.058;2024-02-15T03:10:37;7.85;;;2.15;;
13891;SDS011;7016;48.172;8.058;2024-02-15T03:13:23;6.72;;;1.77;;
13891;SDS011;7016;48.172;8.058;2024-02-15T03:16:10;4.97;;;1.73;;
13891;SDS011;7016;48.172;8.058;2024-02-15T03:18:56;5.80;;;1.85;;
13891;SDS011;7016;48.172;8.058;2024-02-15T03:21:42;5.50;;;1.98;;
13891;SDS011;7016;48.172;8.058;2024-02-15T03:24:32;6.95;;;2.05;;
13891;SDS011;7016;48.172;8.058;2024-02-15T03:27:18;4.63;;;2.00;;
13891;SDS011;7016;48.172;8.058;2024-02-15T03:30:08;6.82;;;2.10;;
13891;SDS011;7016;48.172;8.058;2024-02-15T03:32:56;8.10;;;2.67;;
13891;SDS011;7016;48.172;8.058;2024-02-15T03:35:43;7.60;;;1.60;;
13891;SDS011;7016;48.172;8.058;2024-02-15T03:38:29;4.88;;;1.52;;
13891;SDS011;7016;48.172;8.058;2024-02-15T03:41:17;9.07;;;2.55;;
13891;SDS011;7016;48.172;8.058;2024-02-15T03:44:03;5.95;;;1.95;;
13891;SDS011;7016;48.172;8.058;2024-02-15T03:46:49;3.95;;;1.70;;
13891;SDS011;7016;48.172;8.058;2024-02-15T03:49:36;7.28;;;2.15;;
13891;SDS011;7016;48.172;8.058;2024-02-15T03:52:22;7.22;;;1.80;;
13891;SDS011;7016;48.172;8.058;2024-02-15T03:55:08;6.25;;;1.90;;
13891;SDS011;7016;48.172;8.058;2024-02-15T03:57:55;6.18;;;2.17;;
13891;SDS011;7016;48.172;8.058;2024-02-15T04:00:42;7.28;;;2.40;;
13891;SDS011;7016;48.172;8.058;2024-02-15T04:03:30;12.38;;;3.42;;
13891;SDS011;7016;48.172;8.058;2024-02-15T04:06:17;12.07;;;2.85;;
13891;SDS011;7016;48.172;8.058;2024-02-15T04:09:04;7.25;;;2.05;;
13891;SDS011;7016;48.172;8.058;2024-02-15T04:11:50;8.90;;;2.40;;
13891;SDS011;7016;48.172;8.058;2024-02-15T04:14:38;6.82;;;2.35;;
13891;SDS011;7016;48.172;8.058;2024-02-15T04:17:24;7.75;;;2.03;;
13891;SDS011;7016;48.172;8.058;2024-02-15T04:20:11;6.85;;;1.80;;
13891;SDS011;7016;48.172;8.058;2024-02-15T04:22:57;7.65;;;1.90;;
13891;SDS011;7016;48.172;8.058;2024-02-15T04:25:45;6.55;;;1.80;;
13891;SDS011;7016;48.172;8.058;2024-02-15T04:28:36;5.78;;;2.45;;
13891;SDS011;7016;48.172;8.058;2024-02-15T04:31:22;7.07;;;2.50;;
13891;SDS011;7016;48.172;8.058;2024-02-15T04:34:13;6.57;;;2.60;;
13891;SDS011;7016;48.172;8.058;2024-02-15T04:37:04;6.00;;;1.98;;
13891;SDS011;7016;48.172;8.058;2024-02-15T04:39:54;6.25;;;2.47;;
13891;SDS011;7016;48.172;8.058;2024-02-15T04:42:41;10.18;;;2.22;;
13891;SDS011;7016;48.172;8.058;2024-02-15T04:45:30;6.15;;;1.90;;
13891;SDS011;7016;48.172;8.058;2024-02-15T04:48:17;7.13;;;2.17;;
13891;SDS011;7016;48.172;8.058;2024-02-15T04:51:04;11.65;;;2.50;;
13891;SDS011;7016;48.172;8.058;2024-02-15T04:53:51;5.95;;;1.67;;
13891;SDS011;7016;48.172;8.058;2024-02-15T04:56:37;7.20;;;2.17;;
13891;SDS011;7016;48.172;8.058;2024-02-15T04:59:23;6.30;;;2.03;;
13891;SDS011;7016;48.172;8.058;2024-02-15T05:02:11;11.57;;;2.60;;
13891;SDS011;7016;48.172;8.058;2024-02-15T05:04:58;5.65;;;2.28;;
13891;SDS011;7016;48.172;8.058;2024-02-15T05:07:44;3.80;;;1.70;;
13891;SDS011;7016;48.172;8.058;2024-02-15T05:10:30;3.65;;;1.40;;
13891;SDS011;7016;48.172;8.058;2024-02-15T05:13:16;5.85;;;1.85;;
13891;SDS011;7016;48.172;8.058;2024-02-15T05:16:03;5.15;;;2.25;;
13891;SDS011;7016;48.172;8.058;2024-02-15T05:18:51;5.22;;;2.17;;
13891;SDS011;7016;48.172;8.058;2024-02-15T05:21:37;9.60;;;2.40;;
13891;SDS011;7016;48.172;8.058;2024-02-15T05:24:23;7.22;;;2.35;;
13891;SDS011;7016;48.172;8.058;2024-02-15T05:27:09;6.65;;;2.30;;
13891;SDS011;7016;48.172;8.058;2024-02-15T05:29:56;4.75;;;2.10;;
13891;SDS011;7016;48.172;8.058;2024-02-15T05:32:42;7.70;;;2.13;;
13891;SDS011;7016;48.172;8.058;2024-02-15T05:35:29;5.38;;;3.00;;
13891;SDS011;7016;48.172;8.058;2024-02-15T05:38:15;5.00;;;2.50;;
13891;SDS011;7016;48.172;8.058;2024-02-15T05:41:02;6.68;;;2.47;;
13891;SDS011;7016;48.172;8.058;2024-02-15T05:43:49;4.50;;;1.40;;
13891;SDS011;7016;48.172;8.058;2024-02-15T05:46:35;5.72;;;1.63;;
13891;SDS011;7016;48.172;8.058;2024-02-15T05:49:25;5.07;;;2.22;;
13891;SDS011;7016;48.172;8.058;2024-02-15T05:52:11;7.28;;;3.05;;
13891;SDS011;7016;48.172;8.058;2024-02-15T05:54:58;5.90;;;2.80;;
13891;SDS011;7016;48.172;8.058;2024-02-15T05:57:44;10.32;;;3.33;;
13891;SDS011;7016;48.172;8.058;2024-02-15T06:00:30;10.75;;;3.15;;
13891;SDS011;7016;48.172;8.058;2024-02-15T06:03:17;6.80;;;2.70;;
13891;SDS011;7016;48.172;8.058;2024-02-15T06:06:03;7.68;;;3.03;;
13891;SDS011;7016;48.172;8.058;2024-02-15T06:08:54;6.65;;;2.50;;
13891;SDS011;7016;48.172;8.058;2024-02-15T06:11:49;5.85;;;2.53;;
13891;SDS011;7016;48.172;8.058;2024-02-15T06:14:41;7.55;;;2.80;;
13891;SDS011;7016;48.172;8.058;2024-02-15T06:17:27;4.47;;;1.98;;
13891;SDS011;7016;48.172;8.058;2024-02-15T06:20:13;6.43;;;2.58;;
13891;SDS011;7016;48.172;8.058;2024-02-15T06:23:00;7.68;;;2.47;;
13891;SDS011;7016;48.172;8.058;2024-02-15T06:25:51;7.28;;;2.40;;
13891;SDS011;7016;48.172;8.058;2024-02-15T06:28:41;9.48;;;3.00;;
13891;SDS011;7016;48.172;8.058;2024-02-15T06:31:46;10.05;;;3.00;;
13891;SDS011;7016;48.172;8.058;2024-02-15T06:34:51;6.60;;;2.97;;
13891;SDS011;7016;48.172;8.058;2024-02-15T06:37:56;6.72;;;2.90;;
13891;SDS011;7016;48.172;8.058;2024-02-15T06:41:01;7.35;;;2.83;;
13891;SDS011;7016;48.172;8.058;2024-02-15T06:43:47;8.93;;;3.88;;
13891;SDS011;7016;48.172;8.058;2024-02-15T06:46:35;13.32;;;4.55;;
13891;SDS011;7016;48.172;8.058;2024-02-15T06:49:25;8.18;;;3.80;;
13891;SDS011;7016;48.172;8.058;2024-02-15T06:52:11;7.13;;;3.58;;
13891;SDS011;7016;48.172;8.058;2024-02-15T06:54:59;6.78;;;3.42;;
13891;SDS011;7016;48.172;8.058;2024-02-15T06:57:46;7.53;;;3.03;;
13891;SDS011;7016;48.172;8.058;2024-02-15T07:00:33;6.72;;;2.97;;
13891;SDS011;7016;48.172;8.058;2024-02-15T07:03:19;4.25;;;2.60;;
13891;SDS011;7016;48.172;8.058;2024-02-15T07:06:08;9.95;;;4.15;;
13891;SDS011;7016;48.172;8.058;2024-02-15T07:08:54;7.90;;;3.40;;
13891;SDS011;7016;48.172;8.058;2024-02-15T07:11:42;6.82;;;3.10;;
13891;SDS011;7016;48.172;8.058;2024-02-15T07:14:29;6.40;;;2.50;;
13891;SDS011;7016;48.172;8.058;2024-02-15T07:17:15;6.70;;;2.53;;
13891;SDS011;7016;48.172;8.058;2024-02-15T07:20:01;6.47;;;3.03;;
13891;SDS011;7016;48.172;8.058;2024-02-15T07:22:49;4.85;;;2.65;;
13891;SDS011;7016;48.172;8.058;2024-02-15T07:25:35;5.80;;;2.60;;
13891;SDS011;7016;48.172;8.058;2024-02-15T07:28:22;7.00;;;2.50;;
13891;SDS011;7016;48.172;8.058;2024-02-15T07:31:12;7.72;;;2.50;;
13891;SDS011;7016;48.172;8.058;2024-02-15T07:33:58;9.43;;;2.90;;
13891;SDS011;7016;48.172;8.058;2024-02-15T07:36:44;8.40;;;2.90;;
13891;SDS011;7016;48.172;8.058;2024-02-15T07:39:32;5.80;;;3.28;;
13891;SDS011;7016;48.172;8.058;2024-02-15T07:42:19;10.85;;;5.50;;
13891;SDS011;7016;48.172;8.058;2024-02-15T07:45:06;7.97;;;3.50;;
13891;SDS011;7016;48.172;8.058;2024-02-15T07:47:53;8.95;;;4.40;;
13891;SDS011;7016;48.172;8.058;2024-02-15T07:50:39;13.93;;;6.78;;
13891;SDS011;7016;48.172;8.058;2024-02-15T07:53:29;10.70;;;5.88;;
13891;SDS011;7016;48.172;8.058;2024-02-15T07:56:17;6.95;;;3.33;;
13891;SDS011;7016;48.172;8.058;2024-02-15T07:59:03;12.20;;;4.50;;
13891;SDS011;7016;48.172;8.058;2024-02-15T08:01:49;5.72;;;2.92;;
13891;SDS011;7016;48.172;8.058;2024-02-15T08:04:35;6.38;;;3.17;;
13891;SDS011;7016;48.172;8.058;2024-02-15T08:07:26;8.27;;;3.25;;
13891;SDS011;7016;48.172;8.058;2024-02-15T08:10:17;11.23;;;4.70;;
13891;SDS011;7016;48.172;8.058;2024-02-15T08:13:03;10.30;;;4.35;;
13891;SDS011;7016;48.172;8.058;2024-02-15T08:15:49;15.43;;;6.40;;
13891;SDS011;7016;48.172;8.058;2024-02-15T08:18:38;26.00;;;11.48;;
13891;SDS011;7016;48.172;8.058;2024-02-15T08:21:28;22.23;;;10.70;;
13891;SDS011;7016;48.172;8.058;2024-02-15T08:24:18;24.45;;;12.50;;
13891;SDS011;7016;48.172;8.058;2024-02-15T08:27:04;24.42;;;11.82;;
13891;SDS011;7016;48.172;8.058;2024-02-15T08:29:50;33.10;;;17.27;;
13891;SDS011;7016;48.172;8.058;2024-02-15T08:32:37;35.03;;;21.20;;
13891;SDS011;7016;48.172;8.058;2024-02-15T08:35:24;22.92;;;12.63;;
13891;SDS011;7016;48.172;8.058;2024-02-15T08:38:11;26.95;;;13.98;;
13891;SDS011;7016;48.172;8.058;2024-02-15T08:40:57;25.80;;;13.55;;
13891;SDS011;7016;48.172;8.058;2024-02-15T08:43:43;31.83;;;17.35;;
13891;SDS011;7016;48.172;8.058;2024-02-15T08:46:31;20.60;;;11.25;;
13891;SDS011;7016;48.172;8.058;2024-02-15T08:49:17;11.82;;;6.93;;
13891;SDS011;7016;48.172;8.058;2024-02-15T08:52:03;15.98;;;6.35;;
13891;SDS011;7016;48.172;8.058;2024-02-15T08:54:50;11.70;;;6.22;;
13891;SDS011;7016;48.172;8.058;2024-02-15T08:57:36;13.75;;;5.90;;
13891;SDS011;7016;48.172;8.058;2024-02-15T09:00:26;13.50;;;7.88;;
13891;SDS011;7016;48.172;8.058;2024-02-15T09:03:14;13.20;;;7.70;;
13891;SDS011;7016;48.172;8.058;2024-02-15T09:06:05;13.77;;;6.78;;
13891;SDS011;7016;48.172;8.058;2024-02-15T09:09:00;13.15;;;6.78;;
13891;SDS011;7016;48.172;8.058;2024-02-15T09:11:47;17.98;;;11.63;;
13891;SDS011;7016;48.172;8.058;2024-02-15T09:14:33;13.68;;;7.15;;
13891;SDS011;7016;48.172;8.058;2024-02-15T09:17:20;17.88;;;9.40;;
13891;SDS011;7016;48.172;8.058;2024-02-15T09:20:09;10.57;;;5.68;;
13891;SDS011;7016;48.172;8.058;2024-02-15T09:23:00;14.43;;;4.60;;
13891;SDS011;7016;48.172;8.058;2024-02-15T09:25:51;8.07;;;3.65;;
13891;SDS011;7016;48.172;8.058;2024-02-15T09:28:39;6.78;;;3.65;;
13891;SDS011;7016;48.172;8.058;2024-02-15T09:31:26;8.68;;;3.78;;
13891;SDS011;7016;48.172;8.058;2024-02-15T09:34:12;10.00;;;4.18;;
13891;SDS011;7016;48.172;8.058;2024-02-15T09:36:58;9.90;;;4.15;;
13891;SDS011;7016;48.172;8.058;2024-02-15T09:39:45;7.53;;;4.70;;
13891;SDS011;7016;48.172;8.058;2024-02-15T09:42:32;10.50;;;4.97;;
13891;SDS011;7016;48.172;8.058;2024-02-15T09:45:20;12.90;;;5.30;;
13891;SDS011;7016;48.172;8.058;2024-02-15T09:48:11;13.63;;;5.25;;
13891;SDS011;7016;48.172;8.058;2024-02-15T09:51:07;10.73;;;5.15;;
13891;SDS011;7016;48.172;8.058;2024-02-15T09:54:04;8.52;;;4.60;;
13891;SDS011;7016;48.172;8.058;2024-02-15T09:56:51;7.50;;;4.07;;
13891;SDS011;7016;48.172;8.058;2024-02-15T09:59:39;8.50;;;4.00;;
13891;SDS011;7016;48.172;8.058;2024-02-15T10:02:26;9.52;;;3.88;;
13891;SDS011;7016;48.172;8.058;2024-02-15T10:05:12;13.13;;;4.47;;
13891;SDS011;7016;48.172;8.058;2024-02-15T10:07:58;9.23;;;4.47;;
13891;SDS011;7016;48.172;8.058;2024-02-15T10:10:47;9.18;;;5.18;;
13891;SDS011;7016;48.172;8.058;2024-02-15T10:14:01;13.75;;;5.70;;
13891;SDS011;7016;48.172;8.058;2024-02-15T10:16:56;7.45;;;4.82;;
13891;SDS011;7016;48.172;8.058;2024-02-15T10:19:42;11.10;;;4.05;;
13891;SDS011;7016;48.172;8.058;2024-02-15T10:22:29;7.30;;;3.22;;
13891;SDS011;7016;48.172;8.058;2024-02-15T10:25:16;8.02;;;3.38;;
13891;SDS011;7016;48.172;8.058;2024-02-15T10:30:52;10.82;;;2.75;;
13891;SDS011;7016;48.172;8.058;2024-02-15T10:33:38;7.38;;;3.17;;
13891;SDS011;7016;48.172;8.058;2024-02-15T10:36:25;7.55;;;3.35;;
13891;SDS011;7016;48.172;8.058;2024-02-15T10:39:13;10.23;;;6.13;;
13891;SDS011;7016;48.172;8.058;2024-02-15T10:42:06;10.68;;;6.25;;
13891;SDS011;7016;48.172;8.058;2024-02-15T10:44:52;9.07;;;3.95;;
13891;SDS011;7016;48.172;8.058;2024-02-15T10:47:39;10.35;;;5.10;;
13891;SDS011;7016;48.172;8.058;2024-02-15T10:50:26;7.53;;;4.60;;
13891;SDS011;7016;48.172;8.058;2024-02-15T10:53:21;8.40;;;4.78;;
13891;SDS011;7016;48.172;8.058;2024-02-15T10:56:28;9.95;;;5.50;;
13891;SDS011;7016;48.172;8.058;2024-02-15T10:59:23;14.80;;;8.90;;
13891;SDS011;7016;48.172;8.058;2024-02-15T11:02:30;20.98;;;12.95;;
13891;SDS011;7016;48.172;8.058;2024-02-15T11:05:32;21.65;;;11.88;;
13891;SDS011;7016;48.172;8.058;2024-02-15T11:08:23;19.38;;;10.98;;
13891;SDS011;7016;48.172;8.058;2024-02-15T11:11:09;15.05;;;8.77;;
13891;SDS011;7016;48.172;8.058;2024-02-15T11:14:42;10.98;;;5.10;;
13891;SDS011;7016;48.172;8.058;2024-02-15T11:23:23;8.23;;;4.57;;
13891;SDS011;7016;48.172;8.058;2024-02-15T11:26:42;10.55;;;4.47;;
13891;SDS011;7016;48.172;8.058;2024-02-15T11:32:55;10.07;;;4.50;;
13891;SDS011;7016;48.172;8.058;2024-02-15T11:36:01;9.95;;;5.43;;
13891;SDS011;7016;48.172;8.058;2024-02-15T11:38:52;11.20;;;3.72;;
13891;SDS011;7016;48.172;8.058;2024-02-15T11:41:38;11.63;;;3.35;;
13891;SDS011;7016;48.172;8.058;2024-02-15T11:44:24;8.18;;;2.67;;
13891;SDS011;7016;48.172;8.058;2024-02-15T11:47:11;6.43;;;2.65;;
13891;SDS011;7016;48.172;8.058;2024-02-15T11:49:59;4.32;;;2.55;;
13891;SDS011;7016;48.172;8.058;2024-02-15T11:52:51;5.82;;;2.58;;
13891;SDS011;7016;48.172;8.058;2024-02-15T11:55:37;7.05;;;2.70;;
13891;SDS011;7016;48.172;8.058;2024-02-15T11:58:24;4.47;;;1.95;;
13891;SDS011;7016;48.172;8.058;2024-02-15T12:01:17;5.60;;;2.20;;
13891;SDS011;7016;48.172;8.058;2024-02-15T12:04:22;5.35;;;1.83;;
13891;SDS011;7016;48.172;8.058;2024-02-15T12:07:28;3.53;;;1.80;;
13891;SDS011;7016;48.172;8.058;2024-02-15T12:10:33;3.47;;;1.88;;
13891;SDS011;7016;48.172;8.058;2024-02-15T12:13:38;6.32;;;2.55;;
13891;SDS011;7016;48.172;8.058;2024-02-15T12:16:43;5.10;;;2.15;;
13891;SDS011;7016;48.172;8.058;2024-02-15T12:19:49;4.63;;;2.42;;
13891;SDS011;7016;48.172;8.058;2024-02-15T12:25:30;3.88;;;2.08;;
13891;SDS011;7016;48.172;8.058;2024-02-15T12:28:18;4.50;;;2.47;;
13891;SDS011;7016;48.172;8.058;2024-02-15T12:31:04;6.60;;;2.80;;
13891;SDS011;7016;48.172;8.058;2024-02-15T12:34:02;5.53;;;2.50;;
13891;SDS011;7016;48.172;8.058;2024-02-15T12:37:06;4.20;;;2.03;;
13891;SDS011;7016;48.172;8.058;2024-02-15T12:39:54;3.38;;;2.03;;
13891;SDS011;7016;48.172;8.058;2024-02-15T12:42:41;4.90;;;2.25;;
13891;SDS011;7016;48.172;8.058;2024-02-15T12:45:31;6.00;;;2.08;;
13891;SDS011;7016;48.172;8.058;2024-02-15T12:48:22;5.15;;;2.08;;
13891;SDS011;7016;48.172;8.058;2024-02-15T12:51:15;4.50;;;1.90;;
13891;SDS011;7016;48.172;8.058;2024-02-15T12:54:10;6.90;;;2.20;;
13891;SDS011;7016;48.172;8.058;2024-02-15T12:57:07;5.72;;;1.77;;
13891;SDS011;7016;48.172;8.058;2024-02-15T12:59:59;3.92;;;1.92;;
13891;SDS011;7016;48.172;8.058;2024-02-15T13:02:46;5.40;;;2.35;;
13891;SDS011;7016;48.172;8.058;2024-02-15T13:05:37;7.50;;;2.50;;
13891;SDS011;7016;48.172;8.058;2024-02-15T13:08:23;5.35;;;2.60;;
13891;SDS011;7016;48.172;8.058;2024-02-15T13:11:09;6.22;;;2.75;;
13891;SDS011;7016;48.172;8.058;2024-02-15T13:13:58;6.05;;;2.10;;
13891;SDS011;7016;48.172;8.058;2024-02-15T13:16:44;7.60;;;2.30;;
13891;SDS011;7016;48.172;8.058;2024-02-15T13:19:32;5.32;;;2.25;;
13891;SDS011;7016;48.172;8.058;2024-02-15T13:22:21;6.50;;;2.08;;
13891;SDS011;7016;48.172;8.058;2024-02-15T13:25:07;6.03;;;2.38;;
13891;SDS011;7016;48.172;8.058;2024-02-15T13:27:54;6.82;;;1.90;;
13891;SDS011;7016;48.172;8.058;2024-02-15T13:30:42;6.80;;;2.30;;
13891;SDS011;7016;48.172;8.058;2024-02-15T13:33:31;11.18;;;2.63;;
13891;SDS011;7016;48.172;8.058;2024-02-15T13:36:18;5.90;;;2.20;;
13891;SDS011;7016;48.172;8.058;2024-02-15T13:39:05;9.73;;;2.75;;
13891;SDS011;7016;48.172;8.058;2024-02-15T13:41:54;5.10;;;2.40;;
13891;SDS011;7016;48.172;8.058;2024-02-15T13:44:42;4.50;;;2.60;;
13891;SDS011;7016;48.172;8.058;2024-02-15T13:47:29;4.93;;;2.55;;
13891;SDS011;7016;48.172;8.058;2024-02-15T13:50:17;4.25;;;2.60;;
13891;SDS011;7016;48.172;8.058;2024-02-15T13:53:03;4.93;;;2.13;;
13891;SDS011;7016;48.172;8.058;2024-02-15T13:55:50;5.60;;;3.25;;
13891;SDS011;7016;48.172;8.058;2024-02-15T13:58:41;7.20;;;3.13;;
13891;SDS011;7016;48.172;8.058;2024-02-15T14:01:27;5.53;;;2.50;;
13891;SDS011;7016;48.172;8.058;2024-02-15T14:04:14;6.88;;;2.78;;
13891;SDS011;7016;48.172;8.058;2024-02-15T14:07:01;7.85;;;2.50;;
13891;SDS011;7016;48.172;8.058;2024-02-15T14:09:48;6.05;;;2.40;;
13891;SDS011;7016;48.172;8.058;2024-02-15T14:12:37;9.15;;;2.53;;
13891;SDS011;7016;48.172;8.058;2024-02-15T14:15:26;8.77;;;2.90;;
13891;SDS011;7016;48.172;8.058;2024-02-15T14:18:27;4.38;;;2.15;;
13891;SDS011;7016;48.172;8.058;2024-02-15T14:21:13;8.70;;;2.60;;
13891;SDS011;7016;48.172;8.058;2024-02-15T14:24:02;4.38;;;1.98;;
13891;SDS011;7016;48.172;8.058;2024-02-15T14:26:48;3.40;;;2.08;;
13891;SDS011;7016;48.172;8.058;2024-02-15T14:29:35;4.70;;;1.85;;
13891;SDS011;7016;48.172;8.058;2024-02-15T14:32:22;3.70;;;1.60;;
13891;SDS011;7016;48.172;8.058;2024-02-15T14:35:27;4.88;;;2.03;;
13891;SDS011;7016;48.172;8.058;2024-02-15T14:38:15;4.82;;;2.10;;
13891;SDS011;7016;48.172;8.058;2024-02-15T14:41:07;5.97;;;1.75;;
13891;SDS011;7016;48.172;8.058;2024-02-15T14:43:56;6.38;;;1.83;;
13891;SDS011;7016;48.172;8.058;2024-02-15T14:46:52;4.05;;;2.05;;
13891;SDS011;7016;48.172;8.058;2024-02-15T14:49:39;6.22;;;2.13;;
13891;SDS011;7016;48.172;8.058;2024-02-15T14:52:25;3.83;;;1.80;;
13891;SDS011;7016;48.172;8.058;2024-02-15T14:55:12;7.32;;;2.53;;
13891;SDS011;7016;48.172;8.058;2024-02-15T14:57:58;8.70;;;4.38;;
13891;SDS011;7016;48.172;8.058;2024-02-15T15:00:45;8.18;;;4.43;;
13891;SDS011;7016;48.172;8.058;2024-02-15T15:03:32;5.15;;;2.42;;
13891;SDS011;7016;48.172;8.058;2024-02-15T15:06:18;4.68;;;2.20;;
13891;SDS011;7016;48.172;8.058;2024-02-15T15:09:23;4.10;;;2.00;;
13891;SDS011;7016;48.172;8.058;2024-02-15T15:12:28;4.10;;;2.05;;
13891;SDS011;7016;48.172;8.058;2024-02-15T15:15:25;6.97;;;2.40;;
13891;SDS011;7016;48.172;8.058;2024-02-15T15:18:12;4.55;;;2.15;;
13891;SDS011;7016;48.172;8.058;2024-02-15T15:20:58;4.93;;;2.00;;
13891;SDS011;7016;48.172;8.058;2024-02-15T15:23:45;3.92;;;1.90;;
13891;SDS011;7016;48.172;8.058;2024-02-15T15:26:31;5.20;;;2.00;;
13891;SDS011;7016;48.172;8.058;2024-02-15T15:29:17;3.38;;;1.70;;
13891;SDS011;7016;48.172;8.058;2024-02-15T15:32:04;6.03;;;1.75;;
13891;SDS011;7016;48.172;8.058;2024-02-15T15:34:50;7.15;;;2.08;;
13891;SDS011;7016;48.172;8.058;2024-02-15T15:37:36;3.83;;;2.10;;
13891;SDS011;7016;48.172;8.058;2024-02-15T15:40:23;7.38;;;2.15;;
13891;SDS011;7016;48.172;8.058;2024-02-15T15:43:10;3.83;;;2.03;;
13891;SDS011;7016;48.172;8.058;2024-02-15T15:45:58;4.10;;;2.35;;
13891;SDS011;7016;48.172;8.058;2024-02-15T15:48:45;7.45;;;3.17;;
13891;SDS011;7016;48.172;8.058;2024-02-15T15:51:31;5.68;;;2.42;;
13891;SDS011;7016;48.172;8.058;2024-02-15T15:54:19;5.80;;;2.20;;
13891;SDS011;7016;48.172;8.058;2024-02-15T15:57:05;5.63;;;2.10;;
13891;SDS011;7016;48.172;8.058;2024-02-15T15:59:51;6.05;;;2.22;;
13891;SDS011;7016;48.172;8.058;2024-02-15T16:02:40;6.43;;;2.22;;
13891;SDS011;7016;48.172;8.058;2024-02-15T16:05:28;9.93;;;2.42;;
13891;SDS011;7016;48.172;8.058;2024-02-15T16:08:17;6.82;;;3.13;;
13891;SDS011;7016;48.172;8.058;2024-02-15T16:11:04;6.15;;;2.83;;
13891;SDS011;7016;48.172;8.058;2024-02-15T16:13:53;7.47;;;2.95;;
13891;SDS011;7016;48.172;8.058;2024-02-15T16:16:40;8.57;;;2.92;;
13891;SDS011;7016;48.172;8.058;2024-02-15T16:19:27;7.15;;;2.72;;
13891;SDS011;7016;48.172;8.058;2024-02-15T16:22:29;7.40;;;2.30;;
13891;SDS011;7016;48.172;8.058;2024-02-15T16:25:18;8.23;;;2.65;;
13891;SDS011;7016;48.172;8.058;2024-02-15T16:28:04;6.22;;;2.05;;
13891;SDS011;7016;48.172;8.058;2024-02-15T16:30:54;5.05;;;2.38;;
13891;SDS011;7016;48.172;8.058;2024-02-15T16:33:40;5.30;;;2.20;;
13891;SDS011;7016;48.172;8.058;2024-02-15T16:36:27;6.13;;;2.30;;
13891;SDS011;7016;48.172;8.058;2024-02-15T16:39:13;7.10;;;2.95;;
13891;SDS011;7016;48.172;8.058;2024-02-15T16:42:00;4.97;;;2.42;;
13891;SDS011;7016;48.172;8.058;2024-02-15T16:44:46;4.05;;;2.40;;
13891;SDS011;7016;48.172;8.058;2024-02-15T16:47:33;4.65;;;2.08;;
13891;SDS011;7016;48.172;8.058;2024-02-15T16:50:21;9.88;;;3.10;;
13891;SDS011;7016;48.172;8.058;2024-02-15T16:53:08;6.97;;;3.28;;
13891;SDS011;7016;48.172;8.058;2024-02-15T16:55:54;5.30;;;2.70;;
13891;SDS011;7016;48.172;8.058;2024-02-15T16:58:41;5.75;;;2.60;;
13891;SDS011;7016;48.172;8.058;2024-02-15T17:01:27;5.28;;;2.50;;
13891;SDS011;7016;48.172;8.058;2024-02-15T17:04:13;8.32;;;2.95;;
13891;SDS011;7016;48.172;8.058;2024-02-15T17:07:01;6.70;;;3.15;;
13891;SDS011;7016;48.172;8.058;2024-02-15T17:09:47;9.10;;;3.33;;
13891;SDS011;7016;48.172;8.058;2024-02-15T17:12:34;6.32;;;2.53;;
13891;SDS011;7016;48.172;8.058;2024-02-15T17:15:20;10.45;;;3.15;;
13891;SDS011;7016;48.172;8.058;2024-02-15T17:18:11;5.88;;;2.70;;
13891;SDS011;7016;48.172;8.058;2024-02-15T17:20:57;4.70;;;2.63;;
13891;SDS011;7016;48.172;8.058;2024-02-15T17:23:43;6.55;;;2.90;;